createdAt,value
2018-07-13T00:00:15.449Z,20.26
2018-07-13T00:02:44.540Z,20.17
2018-07-13T00:05:13.630Z,20.18
2018-07-13T00:07:42.775Z,20.11
2018-07-13T00:10:11.862Z,20.03
2018-07-13T00:12:40.939Z,19.99
2018-07-13T00:15:11.315Z,19.99
2018-07-13T00:17:40.533Z,19.99
2018-07-13T00:20:09.624Z,19.99
2018-07-13T00:22:38.712Z,19.97
2018-07-13T00:25:08.689Z,19.91
2018-07-13T00:27:37.782Z,19.90
2018-07-13T00:30:06.907Z,19.95
2018-07-13T00:32:36.019Z,19.80
2018-07-13T00:35:05.182Z,19.84
2018-07-13T00:37:34.231Z,19.79
2018-07-13T00:40:03.382Z,19.81
2018-07-13T00:42:32.484Z,19.73
2018-07-13T00:45:01.585Z,19.69
2018-07-13T00:47:30.693Z,19.68
2018-07-13T00:49:59.782Z,19.64
2018-07-13T00:52:28.857Z,19.57
2018-07-13T00:54:58.012Z,19.62
2018-07-13T00:57:27.098Z,19.60
2018-07-13T00:59:56.177Z,19.58
2018-07-13T01:02:44.221Z,19.59
2018-07-13T01:05:15.866Z,19.54
2018-07-13T01:07:44.999Z,19.50
2018-07-13T01:10:14.130Z,19.39
2018-07-13T01:12:43.238Z,19.32
2018-07-13T01:15:12.817Z,19.33
2018-07-13T01:17:42.051Z,19.35
2018-07-13T01:20:11.156Z,19.33
2018-07-13T01:22:40.386Z,19.29
2018-07-13T01:25:09.576Z,19.29
2018-07-13T01:27:38.673Z,19.22
2018-07-13T01:30:07.951Z,19.22
2018-07-13T01:32:37.235Z,19.15
2018-07-13T01:35:06.342Z,19.12
2018-07-13T01:37:35.466Z,19.03
2018-07-13T01:40:04.590Z,19.02
2018-07-13T01:42:33.728Z,19.00
2018-07-13T01:45:02.820Z,19.03
2018-07-13T01:47:31.921Z,19.02
2018-07-13T01:50:01.013Z,19.04
2018-07-13T01:52:30.116Z,18.99
2018-07-13T01:54:59.177Z,18.99
2018-07-13T01:57:28.257Z,18.93
2018-07-13T01:59:57.357Z,18.88
2018-07-13T02:02:26.523Z,18.85
2018-07-13T02:04:55.623Z,18.86
2018-07-13T02:07:24.729Z,18.82
2018-07-13T02:09:55.106Z,18.79
2018-07-13T02:12:24.212Z,18.86
2018-07-13T02:14:53.587Z,18.88
2018-07-13T02:17:23.079Z,18.85
2018-07-13T02:19:56.257Z,18.81
2018-07-13T02:22:25.671Z,18.75
2018-07-13T02:24:54.793Z,18.75
2018-07-13T02:27:23.854Z,18.64
2018-07-13T02:29:52.920Z,18.58
2018-07-13T02:32:22.020Z,18.62
2018-07-13T02:34:51.077Z,18.56
2018-07-13T02:37:20.164Z,18.54
2018-07-13T02:39:49.231Z,18.52
2018-07-13T02:42:18.346Z,18.51
2018-07-13T02:44:47.460Z,18.46
2018-07-13T02:47:16.561Z,18.44
2018-07-13T02:49:45.661Z,18.46
2018-07-13T02:52:14.776Z,18.42
2018-07-13T02:54:43.875Z,18.45
2018-07-13T02:57:13.003Z,18.44
2018-07-13T02:59:42.103Z,18.43
2018-07-13T03:02:11.224Z,18.42
2018-07-13T03:04:40.301Z,18.38
2018-07-13T03:07:09.383Z,18.31
2018-07-13T03:09:38.445Z,18.32
2018-07-13T03:12:07.562Z,18.35
2018-07-13T03:14:36.683Z,18.32
2018-07-13T03:17:05.783Z,18.29
2018-07-13T03:19:34.896Z,18.26
2018-07-13T03:22:04.062Z,18.26
2018-07-13T03:24:33.175Z,18.22
2018-07-13T03:27:02.329Z,18.20
2018-07-13T03:29:31.479Z,18.21
2018-07-13T03:32:00.607Z,18.17
2018-07-13T03:34:29.775Z,18.19
2018-07-13T03:36:58.845Z,18.16
2018-07-13T03:41:50.043Z,18.16
2018-07-13T03:44:19.123Z,18.11
2018-07-13T03:46:48.342Z,18.02
2018-07-13T03:49:17.445Z,17.98
2018-07-13T03:51:46.532Z,18.04
2018-07-13T03:54:15.733Z,18.05
2018-07-13T03:56:44.782Z,18.04
2018-07-13T03:59:13.837Z,18.06
2018-07-13T04:01:43.125Z,17.99
2018-07-13T04:04:12.237Z,18.01
2018-07-13T04:06:41.300Z,18.01
2018-07-13T04:09:11.339Z,18.01
2018-07-13T04:11:40.496Z,18.00
2018-07-13T04:14:09.965Z,18.02
2018-07-13T04:16:39.096Z,17.99
2018-07-13T04:19:08.198Z,18.01
2018-07-13T04:21:37.281Z,18.00
2018-07-13T04:24:06.435Z,18.00
2018-07-13T04:26:35.595Z,18.08
2018-07-13T04:29:04.730Z,18.00
2018-07-13T04:31:33.876Z,18.04
2018-07-13T04:34:02.996Z,18.07
2018-07-13T04:36:32.092Z,18.11
2018-07-13T04:39:01.139Z,18.12
2018-07-13T04:41:30.229Z,18.10
2018-07-13T04:43:59.333Z,18.12
2018-07-13T04:46:28.449Z,18.15
2018-07-13T04:48:57.581Z,18.06
2018-07-13T04:51:26.705Z,18.02
2018-07-13T04:53:55.792Z,18.07
2018-07-13T04:56:24.906Z,18.10
2018-07-13T04:58:54.063Z,18.13
2018-07-13T05:01:23.205Z,18.06
2018-07-13T05:03:52.406Z,18.06
2018-07-13T05:06:21.599Z,18.06
2018-07-13T05:08:50.671Z,18.07
2018-07-13T05:11:19.798Z,18.11
2018-07-13T05:13:48.921Z,18.07
2018-07-13T05:16:18.081Z,18.05
2018-07-13T05:18:47.315Z,18.14
2018-07-13T05:21:16.439Z,18.11
2018-07-13T05:23:45.583Z,18.15
2018-07-13T05:26:15.397Z,18.19
2018-07-13T05:28:44.475Z,18.24
2018-07-13T05:31:14.156Z,18.20
2018-07-13T05:33:43.565Z,18.28
2018-07-13T05:36:12.970Z,18.39
2018-07-13T05:38:42.892Z,18.41
2018-07-13T05:41:13.870Z,18.47
2018-07-13T05:43:43.907Z,18.43
2018-07-13T05:46:14.106Z,18.45
2018-07-13T05:48:43.333Z,18.45
2018-07-13T05:51:13.212Z,18.45
2018-07-13T05:53:43.072Z,18.47
2018-07-13T05:56:13.311Z,18.50
2018-07-13T05:58:43.742Z,18.51
2018-07-13T06:01:13.765Z,18.57
2018-07-13T06:03:44.167Z,18.56
2018-07-13T06:06:15.493Z,18.61
2018-07-13T06:08:45.014Z,18.65
2018-07-13T06:11:15.470Z,18.73
2018-07-13T06:13:44.600Z,18.79
2018-07-13T06:16:14.077Z,18.83
2018-07-13T06:18:43.183Z,18.88
2018-07-13T06:21:12.287Z,18.92
2018-07-13T06:23:41.394Z,18.98
2018-07-13T06:26:10.495Z,18.94
2018-07-13T06:28:39.590Z,19.06
2018-07-13T06:31:08.908Z,18.98
2018-07-13T06:33:38.000Z,18.92
2018-07-13T06:36:07.148Z,18.92
2018-07-13T06:38:36.309Z,19.06
2018-07-13T06:41:05.462Z,19.14
2018-07-13T06:43:34.569Z,19.20
2018-07-13T06:46:03.673Z,19.29
2018-07-13T06:48:32.821Z,19.38
2018-07-13T06:51:01.895Z,19.59
2018-07-13T06:53:31.010Z,19.90
2018-07-13T06:56:00.090Z,20.10
2018-07-13T06:58:40.439Z,20.20
2018-07-13T07:01:09.970Z,20.34
2018-07-13T07:04:47.934Z,20.38
2018-07-13T07:07:19.601Z,20.40
2018-07-13T07:09:50.009Z,20.45
2018-07-13T07:13:03.126Z,20.41
2018-07-13T07:15:32.226Z,20.42
2018-07-13T07:18:01.357Z,20.43
2018-07-13T07:20:30.460Z,20.48
2018-07-13T07:22:59.596Z,20.40
2018-07-13T07:25:28.716Z,20.46
2018-07-13T07:27:57.840Z,20.40
2018-07-13T07:30:26.983Z,20.52
2018-07-13T07:32:56.074Z,20.47
2018-07-13T07:35:25.193Z,20.59
2018-07-13T07:37:54.281Z,20.63
2018-07-13T07:40:23.417Z,20.72
2018-07-13T07:42:52.764Z,20.83
2018-07-13T07:45:21.929Z,20.87
2018-07-13T07:47:51.028Z,20.88
2018-07-13T07:50:20.123Z,20.88
2018-07-13T07:52:49.274Z,20.86
2018-07-13T07:55:18.405Z,20.89
2018-07-13T07:57:47.461Z,20.82
2018-07-13T08:00:16.563Z,20.93
2018-07-13T08:02:45.632Z,20.99
2018-07-13T08:05:14.725Z,21.02
2018-07-13T08:07:43.832Z,21.00
2018-07-13T08:10:12.922Z,21.18
2018-07-13T08:12:42.049Z,21.20
2018-07-13T08:15:11.154Z,21.34
2018-07-13T08:17:40.286Z,21.45
2018-07-13T08:20:09.405Z,21.53
2018-07-13T08:22:45.723Z,21.52
2018-07-13T08:25:15.298Z,21.48
2018-07-13T08:27:50.652Z,21.50
2018-07-13T08:30:31.176Z,21.55
2018-07-13T08:33:00.274Z,21.55
2018-07-13T08:35:29.312Z,21.62
2018-07-13T08:37:58.395Z,21.59
2018-07-13T08:40:27.517Z,21.68
2018-07-13T08:42:56.679Z,21.68
2018-07-13T08:45:25.793Z,21.65
2018-07-13T08:47:54.920Z,21.73
2018-07-13T08:50:24.028Z,21.84
2018-07-13T08:52:53.433Z,21.90
2018-07-13T08:55:22.567Z,21.97
2018-07-13T08:57:51.730Z,21.98
2018-07-13T09:00:20.960Z,22.05
2018-07-13T09:02:50.015Z,22.08
2018-07-13T09:05:19.150Z,22.05
2018-07-13T09:07:48.236Z,22.08
2018-07-13T09:10:17.399Z,22.15
2018-07-13T09:12:46.495Z,22.21
2018-07-13T09:15:15.633Z,22.33
2018-07-13T09:17:44.714Z,22.33
2018-07-13T09:20:14.371Z,22.36
2018-07-13T09:22:43.539Z,22.43
2018-07-13T09:25:12.961Z,22.48
2018-07-13T09:27:42.220Z,22.62
2018-07-13T09:30:12.186Z,22.71
2018-07-13T09:32:41.491Z,22.78
2018-07-13T09:35:10.749Z,22.81
2018-07-13T09:37:40.138Z,22.67
2018-07-13T09:40:09.291Z,22.63
2018-07-13T09:42:38.398Z,22.83
2018-07-13T09:45:07.506Z,22.85
2018-07-13T09:47:37.264Z,22.89
2018-07-13T09:50:06.703Z,22.98
2018-07-13T09:52:35.815Z,23.03
2018-07-13T09:55:04.957Z,23.00
2018-07-13T09:57:34.077Z,23.01
2018-07-13T10:00:03.204Z,23.05
2018-07-13T10:02:32.322Z,23.13
2018-07-13T10:05:01.443Z,23.31
2018-07-13T10:07:30.539Z,23.31
2018-07-13T10:09:59.710Z,23.35
2018-07-13T10:12:28.816Z,23.37
2018-07-13T10:14:57.979Z,23.36
2018-07-13T10:17:27.117Z,23.41
2018-07-13T10:19:56.226Z,23.58
2018-07-13T10:22:28.141Z,23.64
2018-07-13T10:24:59.754Z,23.68
2018-07-13T10:27:32.520Z,23.71
2018-07-13T10:30:02.875Z,23.66
2018-07-13T10:32:32.293Z,23.85
2018-07-13T10:35:02.546Z,23.80
2018-07-13T10:37:32.730Z,23.77
2018-07-13T10:40:01.858Z,23.71
2018-07-13T10:42:30.994Z,23.74
2018-07-13T10:45:00.093Z,23.93
2018-07-13T10:47:29.216Z,23.90
2018-07-13T10:49:58.282Z,24.04
2018-07-13T10:52:27.460Z,24.04
2018-07-13T10:54:56.573Z,24.18
2018-07-13T10:57:25.694Z,24.26
2018-07-13T10:59:54.779Z,24.23
2018-07-13T11:02:23.907Z,24.23
2018-07-13T11:04:52.988Z,24.30
2018-07-13T11:07:22.066Z,24.31
2018-07-13T11:09:51.180Z,24.45
2018-07-13T11:12:20.300Z,24.57
2018-07-13T11:14:49.403Z,24.55
2018-07-13T11:17:18.662Z,24.45
2018-07-13T11:19:47.763Z,24.54
2018-07-13T11:22:17.018Z,24.67
2018-07-13T11:24:46.736Z,24.75
2018-07-13T11:27:15.811Z,24.69
2018-07-13T11:29:44.915Z,24.66
2018-07-13T11:32:14.027Z,24.62
2018-07-13T11:34:43.115Z,24.65
2018-07-13T11:37:12.602Z,24.82
2018-07-13T11:39:41.493Z,24.86
2018-07-13T11:42:10.647Z,24.94
2018-07-13T11:44:39.845Z,24.95
2018-07-13T11:47:09.090Z,25.15
2018-07-13T11:49:38.174Z,25.32
2018-07-13T11:52:07.351Z,25.42
2018-07-13T11:54:36.416Z,25.68
2018-07-13T11:57:05.498Z,26.15
2018-07-13T11:59:34.607Z,26.69
2018-07-13T12:02:03.674Z,27.19
2018-07-13T12:04:32.774Z,28.01
2018-07-13T12:07:01.871Z,28.47
2018-07-13T12:09:30.956Z,28.71
2018-07-13T12:12:00.038Z,28.76
2018-07-13T12:14:29.234Z,28.56
2018-07-13T12:16:58.389Z,28.51
2018-07-13T12:19:27.586Z,28.28
2018-07-13T12:21:56.682Z,28.60
2018-07-13T12:24:25.762Z,28.90
2018-07-13T12:26:55.813Z,29.25
2018-07-13T12:29:24.847Z,29.15
2018-07-13T12:31:53.922Z,29.58
2018-07-13T12:34:22.969Z,29.37
2018-07-13T12:36:52.052Z,29.13
2018-07-13T12:39:21.294Z,29.16
2018-07-13T12:41:50.576Z,29.95
2018-07-13T12:44:19.644Z,30.54
2018-07-13T12:46:48.728Z,30.59
2018-07-13T12:49:17.929Z,30.46
2018-07-13T12:51:46.995Z,30.60
2018-07-13T12:54:16.273Z,30.36
2018-07-13T12:56:45.332Z,29.83
2018-07-13T12:59:14.404Z,30.14
2018-07-13T13:01:43.458Z,30.29
2018-07-13T13:04:12.541Z,29.97
2018-07-13T13:06:41.849Z,29.82
2018-07-13T13:09:10.924Z,29.70
2018-07-13T13:11:40.013Z,29.67
2018-07-13T13:14:09.114Z,29.87
2018-07-13T13:16:38.197Z,30.62
2018-07-13T13:19:07.289Z,30.78
2018-07-13T13:21:36.468Z,31.14
2018-07-13T13:24:05.444Z,31.22
2018-07-13T13:26:34.541Z,31.64
2018-07-13T13:29:03.609Z,31.56
2018-07-13T13:31:32.709Z,31.77
2018-07-13T13:34:01.765Z,32.21
2018-07-13T13:36:30.867Z,31.81
2018-07-13T13:38:59.921Z,32.23
2018-07-13T13:41:29.054Z,31.97
2018-07-13T13:43:58.121Z,31.70
2018-07-13T13:46:27.283Z,31.38
2018-07-13T13:48:56.391Z,31.28
2018-07-13T13:51:25.432Z,31.30
2018-07-13T13:53:54.527Z,31.72
2018-07-13T13:56:23.629Z,32.06
2018-07-13T13:58:52.888Z,32.21
2018-07-13T14:01:21.968Z,32.25
2018-07-13T14:03:51.089Z,32.25
2018-07-13T14:06:20.159Z,32.19
2018-07-13T14:08:49.233Z,32.12
2018-07-13T14:11:18.537Z,32.27
2018-07-13T14:13:47.619Z,32.99
2018-07-13T14:16:16.704Z,33.13
2018-07-13T14:18:45.781Z,33.50
2018-07-13T14:21:14.898Z,33.72
2018-07-13T14:23:43.958Z,34.20
2018-07-13T14:26:13.143Z,34.13
2018-07-13T14:28:42.227Z,34.07
2018-07-13T14:31:11.341Z,34.31
2018-07-13T14:33:40.453Z,34.33
2018-07-13T14:36:09.572Z,34.53
2018-07-13T14:38:38.703Z,34.36
2018-07-13T14:41:07.807Z,34.26
2018-07-13T14:43:36.951Z,34.62
2018-07-13T14:46:06.050Z,34.72
2018-07-13T14:48:35.166Z,34.50
2018-07-13T14:51:04.207Z,34.61
2018-07-13T14:53:33.384Z,34.89
2018-07-13T14:56:02.431Z,34.98
2018-07-13T14:58:31.574Z,35.03
2018-07-13T15:01:00.680Z,34.82
2018-07-13T15:03:29.775Z,34.97
2018-07-13T15:05:58.919Z,35.26
2018-07-13T15:08:27.923Z,35.20
2018-07-13T15:10:57.022Z,34.93
2018-07-13T15:13:26.121Z,35.19
2018-07-13T15:15:55.191Z,35.20
2018-07-13T15:18:24.296Z,34.96
2018-07-13T15:20:53.393Z,34.99
2018-07-13T15:23:22.444Z,35.13
2018-07-13T15:25:51.507Z,34.90
2018-07-13T15:28:20.590Z,34.85
2018-07-13T15:30:49.695Z,34.84
2018-07-13T15:33:18.765Z,34.71
2018-07-13T15:35:47.868Z,34.42
2018-07-13T15:38:16.927Z,34.12
2018-07-13T15:40:46.106Z,33.96
2018-07-13T15:43:15.219Z,33.89
2018-07-13T15:45:44.383Z,33.82
2018-07-13T15:48:13.433Z,33.61
2018-07-13T15:50:42.479Z,33.12
2018-07-13T15:53:11.604Z,33.04
2018-07-13T15:55:45.912Z,32.47
2018-07-13T15:58:15.039Z,32.34
2018-07-13T16:00:44.285Z,32.14
2018-07-13T16:03:13.334Z,31.98
2018-07-13T16:05:42.537Z,31.73
2018-07-13T16:08:11.625Z,31.30
2018-07-13T16:10:40.723Z,31.09
2018-07-13T16:13:09.957Z,31.07
2018-07-13T16:15:39.001Z,30.81
2018-07-13T16:18:08.151Z,30.72
2018-07-13T16:20:37.209Z,30.40
2018-07-13T16:23:06.591Z,30.30
2018-07-13T16:25:35.754Z,30.03
2018-07-13T16:28:04.865Z,29.76
2018-07-13T16:30:33.979Z,29.71
2018-07-13T16:33:03.044Z,29.67
2018-07-13T16:35:32.111Z,29.68
2018-07-13T16:38:01.195Z,29.67
2018-07-13T16:40:30.370Z,29.70
2018-07-13T16:42:59.456Z,29.73
2018-07-13T16:45:28.572Z,29.62
2018-07-13T16:47:57.634Z,29.50
2018-07-13T16:50:26.810Z,29.42
2018-07-13T16:52:55.902Z,29.47
2018-07-13T16:55:24.991Z,29.47
2018-07-13T16:57:54.063Z,29.45
2018-07-13T17:00:23.339Z,29.20
2018-07-13T17:02:52.447Z,29.21
2018-07-13T17:05:21.530Z,29.19
2018-07-13T17:07:50.752Z,29.15
2018-07-13T17:10:19.832Z,29.16
2018-07-13T17:12:48.874Z,29.10
2018-07-13T17:15:17.977Z,29.05
2018-07-13T17:17:47.055Z,28.94
2018-07-13T17:20:16.165Z,28.91
2018-07-13T17:22:45.429Z,28.78
2018-07-13T17:25:14.792Z,28.74
2018-07-13T17:27:43.950Z,28.71
2018-07-13T17:30:12.995Z,28.71
2018-07-13T17:32:42.095Z,28.64
2018-07-13T17:35:11.286Z,28.52
2018-07-13T17:37:40.376Z,28.48
2018-07-13T17:40:09.630Z,28.37
2018-07-13T17:42:38.755Z,28.31
2018-07-13T17:45:09.804Z,28.29
2018-07-13T17:47:38.875Z,28.22
2018-07-13T17:50:07.999Z,28.18
2018-07-13T17:52:37.152Z,28.16
2018-07-13T17:55:06.255Z,28.10
2018-07-13T17:57:35.383Z,28.08
2018-07-13T18:00:04.614Z,28.06
2018-07-13T18:02:33.703Z,28.06
2018-07-13T18:05:03.258Z,27.93
2018-07-13T18:07:32.441Z,27.87
2018-07-13T18:10:01.499Z,27.88
2018-07-13T18:12:30.787Z,27.82
2018-07-13T18:14:59.909Z,27.80
2018-07-13T18:17:29.148Z,27.71
2018-07-13T18:20:00.038Z,27.63
2018-07-13T18:22:29.492Z,27.62
2018-07-13T18:24:58.588Z,27.63
2018-07-13T18:27:28.553Z,27.52
2018-07-13T18:29:57.889Z,27.51
2018-07-13T18:32:27.013Z,27.50
2018-07-13T18:34:56.125Z,27.46
2018-07-13T18:37:25.335Z,27.35
2018-07-13T18:39:54.429Z,27.27
2018-07-13T18:42:23.672Z,27.32
2018-07-13T18:44:52.999Z,27.23
2018-07-13T18:47:22.985Z,27.21
2018-07-13T18:49:52.153Z,27.10
2018-07-13T18:52:21.417Z,27.10
2018-07-13T18:54:50.522Z,27.04
2018-07-13T18:57:19.618Z,26.98
2018-07-13T18:59:48.731Z,27.01
2018-07-13T19:02:17.881Z,26.96
2018-07-13T19:04:46.971Z,26.87
2018-07-13T19:07:16.149Z,26.83
2018-07-13T19:09:45.263Z,26.73
2018-07-13T19:12:14.336Z,26.68
2018-07-13T19:14:44.297Z,26.60
2018-07-13T19:17:13.405Z,26.60
2018-07-13T19:19:42.491Z,26.51
2018-07-13T19:22:11.585Z,26.52
2018-07-13T19:24:40.681Z,26.43
2018-07-13T19:27:09.911Z,26.40
2018-07-13T19:29:38.982Z,26.34
2018-07-13T19:32:08.077Z,26.29
2018-07-13T19:34:37.190Z,26.30
2018-07-13T19:37:06.562Z,26.25
2018-07-13T19:39:35.692Z,26.16
2018-07-13T19:42:04.817Z,26.09
2018-07-13T19:44:33.923Z,26.16
2018-07-13T19:47:03.015Z,26.05
2018-07-13T19:49:32.086Z,26.08
2018-07-13T19:52:01.223Z,26.03
2018-07-13T19:54:30.465Z,25.94
2018-07-13T19:56:59.781Z,25.93
2018-07-13T19:59:29.039Z,25.82
2018-07-13T20:01:58.783Z,25.79
2018-07-13T20:04:27.887Z,25.81
2018-07-13T20:06:57.005Z,25.77
2018-07-13T20:09:26.105Z,25.69
2018-07-13T20:11:55.201Z,25.68
2018-07-13T20:14:25.244Z,25.60
2018-07-13T20:16:54.359Z,25.54
2018-07-13T20:19:23.482Z,25.50
2018-07-13T20:21:52.578Z,25.53
2018-07-13T20:24:21.690Z,25.49
2018-07-13T20:26:50.781Z,25.50
2018-07-13T20:29:19.875Z,25.50
2018-07-13T20:31:48.952Z,25.39
2018-07-13T20:34:19.250Z,25.39
2018-07-13T20:36:49.601Z,25.32
2018-07-13T20:39:19.771Z,25.27
2018-07-13T20:41:49.883Z,25.24
2018-07-13T20:44:20.112Z,25.10
2018-07-13T20:46:50.219Z,25.06
2018-07-13T20:49:19.410Z,25.05
2018-07-13T20:51:49.277Z,24.91
2018-07-13T20:54:18.565Z,24.90
2018-07-13T20:56:47.563Z,24.80
2018-07-13T20:59:16.671Z,24.77
2018-07-13T21:01:45.834Z,24.70
2018-07-13T21:04:14.941Z,24.64
2018-07-13T21:06:44.043Z,24.62
2018-07-13T21:09:13.116Z,24.58
2018-07-13T21:11:42.291Z,24.54
2018-07-13T21:14:11.865Z,24.59
2018-07-13T21:16:41.001Z,24.51
2018-07-13T21:19:10.089Z,24.52
2018-07-13T21:21:39.177Z,24.49
2018-07-13T21:24:08.266Z,24.52
2018-07-13T21:26:37.721Z,24.51
2018-07-13T21:29:07.151Z,24.41
2018-07-13T21:31:37.343Z,24.39
2018-07-13T21:34:06.764Z,24.30
2018-07-13T21:36:36.190Z,24.30
2018-07-13T21:39:06.371Z,24.23
2018-07-13T21:41:36.811Z,24.13
2018-07-13T21:44:06.371Z,24.09
2018-07-13T21:46:35.907Z,24.09
2018-07-13T21:49:05.511Z,24.08
2018-07-13T21:51:35.298Z,23.99
2018-07-13T21:54:04.430Z,23.89
2018-07-13T21:56:33.785Z,23.80
2018-07-13T21:59:03.573Z,23.82
2018-07-13T22:01:33.477Z,23.74
2018-07-13T22:04:04.427Z,23.71
2018-07-13T22:06:36.487Z,23.63
2018-07-13T22:09:07.097Z,23.60
2018-07-13T22:11:37.129Z,23.55
2018-07-13T22:14:06.565Z,23.54
2018-07-13T22:16:35.887Z,23.52
2018-07-13T22:19:05.175Z,23.42
2018-07-13T22:21:34.293Z,23.39
2018-07-13T22:24:03.413Z,23.36
2018-07-13T22:26:33.397Z,23.34
2018-07-13T22:29:03.514Z,23.30
2018-07-13T22:31:32.601Z,23.31
2018-07-13T22:34:01.673Z,23.20
2018-07-13T22:36:30.752Z,23.08
2018-07-13T22:38:59.889Z,23.05
2018-07-13T22:41:28.929Z,22.97
2018-07-13T22:43:58.030Z,22.95
2018-07-13T22:46:27.195Z,22.88
2018-07-13T22:48:56.305Z,22.84
2018-07-13T22:51:25.369Z,22.84
2018-07-13T22:53:54.408Z,22.77
2018-07-13T22:56:23.507Z,22.70
2018-07-13T22:58:52.595Z,22.72
2018-07-13T23:01:21.721Z,22.63
2018-07-13T23:03:50.840Z,22.62
2018-07-13T23:06:19.918Z,22.61
2018-07-13T23:08:49.052Z,22.60
2018-07-13T23:11:18.165Z,22.56
2018-07-13T23:13:47.244Z,22.46
2018-07-13T23:16:16.342Z,22.39
2018-07-13T23:18:45.410Z,22.39
2018-07-13T23:21:14.490Z,22.36
2018-07-13T23:23:43.642Z,22.31
2018-07-13T23:26:12.721Z,22.33
2018-07-13T23:28:41.843Z,22.23
2018-07-13T23:31:10.912Z,22.20
2018-07-13T23:33:40.140Z,22.15
2018-07-13T23:36:09.235Z,22.16
2018-07-13T23:38:38.306Z,22.10
2018-07-13T23:41:07.428Z,22.05
2018-07-13T23:43:36.491Z,22.08
2018-07-13T23:46:05.557Z,22.01
2018-07-13T23:48:34.645Z,21.97
2018-07-13T23:51:03.704Z,21.94
2018-07-13T23:53:32.806Z,21.86
2018-07-13T23:56:01.862Z,21.86
2018-07-13T23:58:31.549Z,21.82
